createdAt,value
2018-03-29T00:00:54.772Z,971.21
2018-03-29T00:01:54.926Z,971.29
2018-03-29T00:02:55.089Z,971.35
2018-03-29T00:03:55.248Z,971.29
2018-03-29T00:04:55.405Z,971.38
2018-03-29T00:05:55.574Z,971.37
2018-03-29T00:06:55.737Z,971.38
2018-03-29T00:07:55.891Z,971.47
2018-03-29T00:08:56.050Z,971.45
2018-03-29T00:09:56.210Z,971.48
2018-03-29T00:10:56.371Z,971.37
2018-03-29T00:11:56.526Z,971.45
2018-03-29T00:12:56.690Z,971.47
2018-03-29T00:13:56.863Z,971.43
2018-03-29T00:14:57.022Z,971.52
2018-03-29T00:15:57.181Z,971.52
2018-03-29T00:16:57.342Z,971.51
2018-03-29T00:17:57.495Z,971.55
2018-03-29T00:18:57.662Z,971.53
2018-03-29T00:19:57.832Z,971.56
2018-03-29T00:20:58.050Z,971.57
2018-03-29T00:21:58.096Z,971.61
2018-03-29T00:22:58.284Z,971.60
2018-03-29T00:23:58.444Z,971.64
2018-03-29T00:24:58.633Z,971.68
2018-03-29T00:25:58.779Z,971.71
2018-03-29T00:26:58.948Z,971.80
2018-03-29T00:27:59.106Z,971.81
2018-03-29T00:28:59.241Z,971.80
2018-03-29T00:29:59.386Z,972.01
2018-03-29T00:30:59.563Z,971.82
2018-03-29T00:31:59.729Z,971.88
2018-03-29T00:32:59.865Z,971.86
2018-03-29T00:34:00.059Z,971.84
2018-03-29T00:35:00.181Z,971.87
2018-03-29T00:36:00.450Z,971.92
2018-03-29T00:37:00.492Z,971.91
2018-03-29T00:38:00.645Z,971.94
2018-03-29T00:39:00.800Z,971.92
2018-03-29T00:40:00.959Z,971.96
2018-03-29T00:41:01.111Z,972.02
2018-03-29T00:42:01.272Z,972.04
2018-03-29T00:43:01.440Z,972.05
2018-03-29T00:44:01.582Z,972.07
2018-03-29T00:45:01.781Z,972.03
2018-03-29T00:46:01.904Z,971.92
2018-03-29T00:47:02.083Z,972.10
2018-03-29T00:48:02.216Z,972.09
2018-03-29T00:49:02.354Z,972.08
2018-03-29T00:50:02.511Z,972.06
2018-03-29T00:51:02.680Z,972.15
2018-03-29T00:52:02.834Z,972.18
2018-03-29T00:53:02.966Z,972.23
2018-03-29T00:54:03.132Z,972.18
2018-03-29T00:55:03.277Z,972.19
2018-03-29T00:56:03.458Z,972.19
2018-03-29T00:57:03.644Z,972.28
2018-03-29T00:58:03.757Z,972.30
2018-03-29T00:59:03.915Z,972.30
2018-03-29T01:00:04.065Z,972.30
2018-03-29T01:01:04.223Z,972.29
2018-03-29T01:02:04.387Z,972.33
2018-03-29T01:03:04.530Z,972.39
2018-03-29T01:04:04.688Z,972.39
2018-03-29T01:05:04.831Z,972.39
2018-03-29T01:06:04.995Z,972.41
2018-03-29T01:07:05.151Z,972.36
2018-03-29T01:08:05.317Z,972.46
2018-03-29T01:09:05.501Z,972.49
2018-03-29T01:10:05.661Z,972.52
2018-03-29T01:11:05.786Z,972.59
2018-03-29T01:12:05.979Z,972.66
2018-03-29T01:13:06.236Z,972.62
2018-03-29T01:14:06.322Z,972.71
2018-03-29T01:15:06.422Z,972.75
2018-03-29T01:16:06.693Z,972.73
2018-03-29T01:17:06.782Z,972.70
2018-03-29T01:18:06.946Z,972.71
2018-03-29T01:19:07.138Z,972.74
2018-03-29T01:20:07.331Z,972.77
2018-03-29T01:21:07.452Z,972.82
2018-03-29T01:22:07.673Z,972.82
2018-03-29T01:23:08.426Z,972.77
2018-03-29T01:24:07.941Z,972.82
2018-03-29T01:25:08.010Z,972.84
2018-03-29T01:26:08.172Z,972.90
2018-03-29T01:27:08.611Z,972.95
2018-03-29T01:28:08.644Z,972.93
2018-03-29T01:29:08.735Z,973.01
2018-03-29T01:30:08.892Z,973.02
2018-03-29T01:32:03.223Z,972.99
2018-03-29T01:33:02.355Z,973.02
2018-03-29T01:34:02.533Z,973.00
2018-03-29T01:35:02.825Z,973.06
2018-03-29T01:38:29.049Z,973.12
2018-03-29T01:39:29.174Z,973.28
2018-03-29T01:40:29.341Z,973.21
2018-03-29T01:41:29.528Z,973.23
2018-03-29T01:42:29.655Z,973.20
2018-03-29T01:43:29.824Z,973.26
2018-03-29T01:44:30.017Z,973.26
2018-03-29T01:45:30.145Z,973.28
2018-03-29T01:46:30.326Z,973.32
2018-03-29T01:47:30.629Z,973.30
2018-03-29T01:48:30.723Z,973.30
2018-03-29T01:49:31.024Z,973.29
2018-03-29T01:50:31.010Z,973.33
2018-03-29T01:51:31.382Z,973.38
2018-03-29T01:52:31.408Z,973.37
2018-03-29T01:53:31.596Z,973.46
2018-03-29T01:54:32.005Z,973.44
2018-03-29T01:55:32.062Z,973.50
2018-03-29T01:56:32.178Z,973.45
2018-03-29T01:57:32.356Z,973.50
2018-03-29T01:58:32.446Z,973.47
2018-03-29T01:59:32.627Z,973.50
2018-03-29T02:00:32.766Z,973.54
2018-03-29T02:01:33.090Z,973.53
2018-03-29T02:02:33.182Z,973.55
2018-03-29T02:03:33.373Z,973.55
2018-03-29T02:04:33.533Z,973.54
2018-03-29T02:05:33.796Z,973.55
2018-03-29T02:06:33.947Z,973.54
2018-03-29T02:07:34.123Z,973.57
2018-03-29T02:08:34.100Z,973.60
2018-03-29T02:09:34.429Z,973.64
2018-03-29T02:10:34.525Z,973.65
2018-03-29T02:11:34.643Z,973.65
2018-03-29T02:12:34.787Z,973.69
2018-03-29T02:13:35.023Z,973.64
2018-03-29T02:14:35.322Z,973.68
2018-03-29T02:15:35.340Z,973.62
2018-03-29T02:16:35.671Z,973.63
2018-03-29T02:17:35.713Z,973.69
2018-03-29T02:18:35.968Z,973.70
2018-03-29T02:19:36.139Z,973.71
2018-03-29T02:20:37.256Z,973.68
2018-03-29T02:21:36.415Z,973.64
2018-03-29T02:22:36.635Z,973.69
2018-03-29T02:23:36.861Z,973.69
2018-03-29T02:24:36.905Z,973.74
2018-03-29T02:25:37.228Z,973.71
2018-03-29T02:26:37.535Z,973.67
2018-03-29T02:27:37.353Z,973.71
2018-03-29T02:28:37.495Z,973.77
2018-03-29T02:29:37.638Z,973.81
2018-03-29T02:30:38.615Z,973.86
2018-03-29T02:31:38.181Z,973.87
2018-03-29T02:32:38.230Z,973.86
2018-03-29T02:33:38.538Z,973.86
2018-03-29T02:34:38.556Z,973.85
2018-03-29T02:35:38.632Z,973.85
2018-03-29T02:36:38.814Z,973.90
2018-03-29T02:37:38.955Z,973.91
2018-03-29T02:38:40.224Z,973.92
2018-03-29T02:39:39.287Z,973.98
2018-03-29T02:40:39.494Z,974.00
2018-03-29T02:41:39.554Z,974.03
2018-03-29T02:42:39.828Z,974.06
2018-03-29T02:43:40.030Z,974.00
2018-03-29T02:44:40.135Z,974.01
2018-03-29T02:45:40.356Z,973.99
2018-03-29T02:46:40.437Z,974.07
2018-03-29T02:47:40.704Z,974.06
2018-03-29T02:48:40.893Z,974.06
2018-03-29T02:49:40.931Z,974.07
2018-03-29T02:50:41.184Z,974.07
2018-03-29T02:51:41.285Z,974.05
2018-03-29T02:52:41.409Z,973.97
2018-03-29T02:53:41.626Z,973.97
2018-03-29T02:54:41.818Z,973.93
2018-03-29T02:55:42.150Z,973.95
2018-03-29T02:56:42.673Z,973.96
2018-03-29T02:57:42.229Z,973.95
2018-03-29T02:58:42.409Z,974.01
2018-03-29T02:59:42.588Z,974.01
2018-03-29T03:00:42.664Z,974.00
2018-03-29T03:01:42.936Z,973.99
2018-03-29T03:02:43.393Z,974.00
2018-03-29T03:03:43.119Z,974.03
2018-03-29T03:04:43.395Z,974.05
2018-03-29T03:05:43.477Z,974.11
2018-03-29T03:06:43.612Z,974.06
2018-03-29T03:07:43.777Z,974.03
2018-03-29T03:08:43.983Z,974.14
2018-03-29T03:09:44.254Z,974.12
2018-03-29T03:10:44.318Z,974.13
2018-03-29T03:11:44.478Z,974.12
2018-03-29T03:12:44.730Z,974.12
2018-03-29T03:13:44.800Z,974.14
2018-03-29T03:14:45.109Z,974.15
2018-03-29T03:15:45.294Z,974.16
2018-03-29T03:16:45.211Z,974.23
2018-03-29T03:17:46.566Z,974.19
2018-03-29T03:18:46.839Z,974.25
2018-03-29T03:19:45.800Z,974.26
2018-03-29T03:20:46.181Z,974.31
2018-03-29T03:21:46.231Z,974.31
2018-03-29T03:22:46.582Z,974.33
2018-03-29T03:23:46.447Z,974.38
2018-03-29T03:24:46.730Z,974.40
2018-03-29T03:25:46.768Z,974.42
2018-03-29T03:26:46.977Z,974.39
2018-03-29T03:27:47.095Z,974.39
2018-03-29T03:28:47.406Z,974.41
2018-03-29T03:29:47.586Z,974.40
2018-03-29T03:30:47.635Z,974.39
2018-03-29T03:31:47.819Z,974.43
2018-03-29T03:32:48.243Z,974.43
2018-03-29T03:33:48.109Z,974.45
2018-03-29T03:34:48.245Z,974.48
2018-03-29T03:35:48.567Z,974.47
2018-03-29T03:36:48.699Z,974.51
2018-03-29T03:37:48.690Z,974.51
2018-03-29T03:38:48.889Z,974.47
2018-03-29T03:39:49.064Z,974.52
2018-03-29T03:40:49.322Z,974.48
2018-03-29T03:41:49.499Z,974.52
2018-03-29T03:42:49.682Z,974.51
2018-03-29T03:43:50.878Z,974.54
2018-03-29T03:44:51.213Z,974.57
2018-03-29T03:45:51.273Z,974.56
2018-03-29T03:46:51.362Z,974.57
2018-03-29T03:47:51.671Z,974.54
2018-03-29T03:48:51.832Z,974.59
2018-03-29T03:49:51.806Z,974.59
2018-03-29T03:50:52.041Z,974.63
2018-03-29T03:51:51.424Z,974.63
2018-03-29T03:52:51.566Z,974.65
2018-03-29T03:53:51.703Z,974.67
2018-03-29T03:54:51.936Z,974.70
2018-03-29T03:55:52.209Z,974.72
2018-03-29T03:56:52.278Z,974.72
2018-03-29T03:57:52.349Z,974.75
2018-03-29T03:58:52.546Z,974.78
2018-03-29T03:59:52.787Z,974.78
2018-03-29T04:00:52.803Z,974.74
2018-03-29T04:01:53.010Z,974.73
2018-03-29T04:02:52.906Z,974.77
2018-03-29T04:03:53.228Z,974.79
2018-03-29T04:04:53.183Z,974.77
2018-03-29T04:05:53.384Z,974.81
2018-03-29T04:06:53.525Z,974.81
2018-03-29T04:07:53.610Z,974.88
2018-03-29T04:08:54.589Z,974.85
2018-03-29T04:09:54.113Z,974.92
2018-03-29T04:10:54.278Z,974.91
2018-03-29T04:11:54.426Z,974.89
2018-03-29T04:12:54.545Z,974.92
2018-03-29T04:13:54.739Z,974.92
2018-03-29T04:14:54.909Z,974.89
2018-03-29T04:15:55.132Z,974.89
2018-03-29T04:16:55.331Z,974.88
2018-03-29T04:17:55.464Z,974.89
2018-03-29T04:18:55.682Z,974.88
2018-03-29T04:19:55.765Z,974.87
2018-03-29T04:20:55.919Z,974.93
2018-03-29T04:21:56.119Z,974.92
2018-03-29T04:22:56.236Z,974.95
2018-03-29T04:23:57.149Z,974.98
2018-03-29T04:24:56.648Z,974.99
2018-03-29T04:25:56.848Z,974.96
2018-03-29T04:26:56.907Z,974.98
2018-03-29T04:27:56.948Z,975.00
2018-03-29T04:28:57.089Z,974.99
2018-03-29T04:29:57.283Z,975.02
2018-03-29T04:30:57.381Z,975.06
2018-03-29T04:31:57.675Z,975.08
2018-03-29T04:32:57.717Z,975.06
2018-03-29T04:33:57.815Z,975.08
2018-03-29T04:34:58.083Z,975.12
2018-03-29T04:35:58.194Z,975.16
2018-03-29T04:36:58.532Z,975.17
2018-03-29T04:37:58.512Z,975.15
2018-03-29T04:38:58.843Z,975.16
2018-03-29T04:39:58.902Z,975.13
2018-03-29T04:40:59.080Z,975.15
2018-03-29T04:41:59.557Z,975.14
2018-03-29T04:42:59.386Z,975.18
2018-03-29T04:43:59.559Z,975.16
2018-03-29T04:44:59.696Z,975.20
2018-03-29T04:46:01.686Z,975.16
2018-03-29T04:46:59.871Z,975.17
2018-03-29T04:48:00.183Z,975.19
2018-03-29T04:49:00.511Z,975.21
2018-03-29T04:50:00.435Z,975.24
2018-03-29T04:51:00.710Z,975.27
2018-03-29T04:52:00.783Z,975.35
2018-03-29T04:53:01.035Z,975.34
2018-03-29T04:54:01.281Z,975.35
2018-03-29T04:55:01.311Z,975.39
2018-03-29T04:56:01.423Z,975.38
2018-03-29T04:57:01.812Z,975.41
2018-03-29T04:58:01.924Z,975.44
2018-03-29T04:59:02.013Z,975.45
2018-03-29T05:00:02.042Z,975.43
2018-03-29T05:01:02.217Z,975.41
2018-03-29T05:02:02.511Z,975.44
2018-03-29T05:03:02.501Z,975.50
2018-03-29T05:04:02.657Z,975.52
2018-03-29T05:05:03.112Z,975.50
2018-03-29T05:06:03.011Z,975.47
2018-03-29T05:07:03.224Z,975.49
2018-03-29T05:08:03.400Z,975.53
2018-03-29T05:09:03.718Z,975.59
2018-03-29T05:10:03.642Z,975.58
2018-03-29T05:11:03.751Z,975.59
2018-03-29T05:12:03.950Z,975.57
2018-03-29T05:13:04.193Z,975.62
2018-03-29T05:14:04.339Z,975.61
2018-03-29T05:15:04.496Z,975.64
2018-03-29T05:16:04.719Z,975.59
2018-03-29T05:17:04.899Z,975.59
2018-03-29T05:18:05.059Z,975.66
2018-03-29T05:19:05.172Z,975.61
2018-03-29T05:20:05.277Z,975.61
2018-03-29T05:21:05.490Z,975.60
2018-03-29T05:22:05.596Z,975.59
2018-03-29T05:23:05.777Z,975.61
2018-03-29T05:24:06.070Z,975.60
2018-03-29T05:25:06.122Z,975.62
2018-03-29T05:26:07.048Z,975.64
2018-03-29T05:27:06.560Z,975.71
2018-03-29T05:28:06.664Z,975.70
2018-03-29T05:29:06.829Z,975.68
2018-03-29T05:30:06.949Z,975.73
2018-03-29T05:31:07.093Z,975.73
2018-03-29T05:32:07.486Z,975.74
2018-03-29T05:33:07.504Z,975.77
2018-03-29T05:34:07.618Z,975.79
2018-03-29T05:35:07.807Z,975.84
2018-03-29T05:36:08.012Z,975.86
2018-03-29T05:37:08.158Z,975.83
2018-03-29T05:38:08.458Z,975.88
2018-03-29T05:39:08.509Z,975.87
2018-03-29T05:40:08.642Z,975.86
2018-03-29T05:41:08.883Z,975.87
2018-03-29T05:42:08.999Z,975.86
2018-03-29T05:43:09.195Z,975.82
2018-03-29T05:44:09.392Z,975.83
2018-03-29T05:45:09.601Z,975.84
2018-03-29T05:46:09.826Z,975.79
2018-03-29T05:47:09.810Z,975.84
2018-03-29T05:48:10.081Z,975.83
2018-03-29T05:49:10.251Z,975.84
2018-03-29T05:50:10.434Z,975.85
2018-03-29T05:51:10.536Z,975.88
2018-03-29T05:52:10.797Z,975.87
2018-03-29T05:53:10.920Z,975.91
2018-03-29T05:54:11.167Z,975.93
2018-03-29T05:55:11.298Z,975.93
2018-03-29T05:56:11.398Z,975.96
2018-03-29T05:57:11.618Z,975.94
2018-03-29T05:58:11.824Z,975.99
2018-03-29T05:59:11.953Z,976.01
2018-03-29T06:00:12.063Z,976.03
2018-03-29T06:01:12.294Z,976.03
2018-03-29T06:02:12.431Z,976.05
2018-03-29T06:03:12.686Z,976.05
2018-03-29T06:04:12.757Z,976.09
2018-03-29T06:05:13.608Z,976.11
2018-03-29T06:06:13.110Z,976.06
2018-03-29T06:07:13.268Z,976.08
2018-03-29T06:08:13.506Z,976.09
2018-03-29T06:09:13.656Z,976.12
2018-03-29T06:10:13.861Z,976.11
2018-03-29T06:11:14.085Z,976.14
2018-03-29T06:12:14.171Z,976.17
2018-03-29T06:13:14.288Z,976.17
2018-03-29T06:14:14.627Z,976.17
2018-03-29T06:15:14.722Z,976.21
2018-03-29T06:16:14.937Z,976.21
2018-03-29T06:17:15.100Z,976.25
2018-03-29T06:18:15.163Z,976.26
2018-03-29T06:19:15.351Z,976.28
2018-03-29T06:20:15.485Z,976.25
2018-03-29T06:21:15.783Z,976.31
2018-03-29T06:22:15.934Z,976.24
2018-03-29T06:23:16.160Z,976.30
2018-03-29T06:24:16.274Z,976.26
2018-03-29T06:25:16.473Z,976.29
2018-03-29T06:26:16.501Z,976.31
2018-03-29T06:27:16.902Z,976.36
2018-03-29T06:28:16.906Z,976.33
2018-03-29T06:29:17.072Z,976.36
2018-03-29T06:30:17.283Z,976.36
2018-03-29T06:31:17.434Z,976.38
2018-03-29T06:32:17.614Z,976.43
2018-03-29T06:33:18.674Z,976.42
2018-03-29T06:34:17.910Z,976.42
2018-03-29T06:35:18.096Z,976.46
2018-03-29T06:36:18.365Z,976.47
2018-03-29T06:37:18.453Z,976.44
2018-03-29T06:38:18.709Z,976.51
2018-03-29T06:39:18.842Z,976.51
2018-03-29T06:40:18.939Z,976.53
2018-03-29T06:41:19.129Z,976.60
2018-03-29T06:42:19.327Z,976.54
2018-03-29T06:43:19.449Z,976.55
2018-03-29T06:44:19.715Z,976.60
2018-03-29T06:45:19.843Z,976.62
2018-03-29T06:46:20.601Z,976.63
2018-03-29T06:47:20.207Z,976.69
2018-03-29T06:48:20.278Z,976.68
2018-03-29T06:49:20.495Z,976.72
2018-03-29T06:50:20.727Z,976.70
2018-03-29T06:51:20.981Z,976.70
2018-03-29T06:52:21.182Z,976.70
2018-03-29T06:53:21.456Z,976.71
2018-03-29T06:54:21.396Z,976.68
2018-03-29T06:55:21.534Z,976.68
2018-03-29T06:56:21.698Z,976.67
2018-03-29T06:57:21.879Z,976.70
2018-03-29T06:58:22.118Z,976.66
2018-03-29T06:59:22.227Z,976.61
2018-03-29T07:00:22.448Z,976.64
2018-03-29T07:01:22.562Z,976.66
2018-03-29T07:02:22.705Z,976.64
2018-03-29T07:03:22.984Z,976.72
2018-03-29T07:04:23.048Z,976.74
2018-03-29T07:05:23.428Z,976.75
2018-03-29T07:06:23.562Z,976.75
2018-03-29T07:07:23.522Z,976.71
2018-03-29T07:08:23.726Z,976.75
2018-03-29T07:09:24.045Z,976.80
2018-03-29T07:10:24.012Z,976.81
2018-03-29T07:11:24.261Z,976.82
2018-03-29T07:12:24.491Z,976.82
2018-03-29T07:13:24.590Z,976.80
2018-03-29T07:14:24.791Z,976.83
2018-03-29T07:15:25.113Z,976.90
2018-03-29T07:16:25.299Z,976.87
2018-03-29T07:17:25.397Z,976.89
2018-03-29T07:18:25.837Z,976.89
2018-03-29T07:19:25.903Z,976.87
2018-03-29T07:20:26.010Z,976.84
2018-03-29T07:21:26.100Z,976.79
2018-03-29T07:22:26.250Z,976.79
2018-03-29T07:23:26.846Z,976.79
2018-03-29T07:24:26.708Z,976.83
2018-03-29T07:25:26.712Z,976.84
2018-03-29T07:26:26.909Z,976.81
2018-03-29T07:27:27.266Z,976.87
2018-03-29T07:28:27.190Z,976.91
2018-03-29T07:29:27.523Z,976.89
2018-03-29T07:30:27.678Z,976.93
2018-03-29T07:31:27.772Z,976.88
2018-03-29T07:32:27.989Z,976.83
2018-03-29T07:33:28.173Z,976.87
2018-03-29T07:34:28.650Z,976.86
2018-03-29T07:35:28.673Z,976.88
2018-03-29T07:36:28.740Z,976.90
2018-03-29T07:37:28.858Z,976.86
2018-03-29T07:38:29.114Z,976.84
2018-03-29T07:39:29.156Z,976.88
2018-03-29T07:40:29.439Z,976.84
2018-03-29T07:41:29.352Z,976.80
2018-03-29T07:42:29.590Z,976.81
2018-03-29T07:43:29.708Z,976.87
2018-03-29T07:44:30.047Z,976.87
2018-03-29T07:45:30.802Z,976.87
2018-03-29T07:46:30.226Z,976.84
2018-03-29T07:47:30.464Z,976.86
2018-03-29T07:48:30.637Z,976.79
2018-03-29T07:49:30.701Z,976.80
2018-03-29T07:50:30.857Z,976.86
2018-03-29T07:51:30.844Z,976.80
2018-03-29T07:52:31.360Z,976.76
2018-03-29T07:53:31.309Z,976.75
2018-03-29T07:54:31.974Z,976.77
2018-03-29T07:55:31.876Z,976.76
2018-03-29T07:56:32.335Z,976.73
2018-03-29T07:57:31.993Z,976.80
2018-03-29T07:58:32.093Z,976.81
2018-03-29T07:59:32.275Z,976.84
2018-03-29T08:00:32.590Z,976.78
2018-03-29T08:01:32.637Z,976.75
2018-03-29T08:02:32.905Z,976.75
2018-03-29T08:03:33.080Z,976.82
2018-03-29T08:04:33.144Z,976.79
2018-03-29T08:05:33.415Z,976.84
2018-03-29T08:06:33.529Z,976.84
2018-03-29T08:07:33.798Z,976.88
2018-03-29T08:08:33.889Z,976.90
2018-03-29T08:09:34.149Z,976.91
2018-03-29T08:10:34.235Z,976.92
2018-03-29T08:11:34.403Z,976.97
2018-03-29T08:12:34.688Z,976.95
2018-03-29T08:13:34.917Z,977.00
2018-03-29T08:14:34.976Z,977.06
2018-03-29T08:15:35.214Z,977.01
2018-03-29T08:16:35.281Z,976.98
2018-03-29T08:17:35.488Z,976.94
2018-03-29T08:18:35.728Z,976.97
2018-03-29T08:19:35.861Z,976.90
2018-03-29T08:20:36.078Z,976.89
2018-03-29T08:21:36.323Z,976.90
2018-03-29T08:22:36.668Z,976.89
2018-03-29T08:23:36.610Z,976.93
2018-03-29T08:24:36.783Z,976.88
2018-03-29T08:25:36.987Z,976.86
2018-03-29T08:26:37.044Z,976.88
2018-03-29T08:27:37.255Z,976.86
2018-03-29T08:28:38.332Z,976.87
2018-03-29T08:29:38.260Z,976.85
2018-03-29T08:30:38.147Z,976.82
2018-03-29T08:31:38.348Z,976.84
2018-03-29T08:32:38.193Z,976.82
2018-03-29T08:33:38.966Z,976.84
2018-03-29T08:34:38.732Z,976.83
2018-03-29T08:35:38.970Z,976.80
2018-03-29T08:36:38.729Z,976.88
2018-03-29T08:37:38.826Z,976.92
2018-03-29T08:38:39.029Z,976.89
2018-03-29T08:39:41.996Z,976.87
2018-03-29T08:40:39.511Z,976.90
2018-03-29T08:41:40.318Z,976.94
2018-03-29T08:42:39.834Z,976.93
2018-03-29T08:43:39.967Z,976.94
2018-03-29T08:44:40.047Z,976.96
2018-03-29T08:45:40.134Z,976.95
2018-03-29T08:46:40.323Z,976.91
2018-03-29T08:47:40.586Z,976.94
2018-03-29T08:48:40.676Z,976.94
2018-03-29T08:49:40.823Z,976.99
2018-03-29T08:50:41.368Z,977.08
2018-03-29T08:51:41.522Z,977.11
2018-03-29T08:52:41.553Z,977.02
2018-03-29T08:53:41.860Z,977.00
2018-03-29T08:54:41.610Z,977.09
2018-03-29T08:55:41.831Z,977.09
2018-03-29T08:56:41.939Z,977.06
2018-03-29T08:57:42.156Z,977.11
2018-03-29T08:58:42.445Z,977.10
2018-03-29T08:59:42.578Z,977.15
2018-03-29T09:00:42.652Z,977.10
2018-03-29T09:01:43.211Z,977.10
2018-03-29T09:02:43.068Z,977.14
2018-03-29T09:03:43.260Z,977.13
2018-03-29T09:04:43.220Z,977.14
2018-03-29T09:05:43.351Z,977.29
2018-03-29T09:06:43.442Z,977.25
2018-03-29T09:07:43.586Z,977.25
2018-03-29T09:08:43.826Z,977.31
2018-03-29T09:09:43.917Z,977.22
2018-03-29T09:10:44.233Z,977.28
2018-03-29T09:11:44.326Z,977.25
2018-03-29T09:12:44.506Z,977.20
2018-03-29T09:13:44.655Z,977.32
2018-03-29T09:14:45.076Z,977.28
2018-03-29T09:15:45.260Z,977.40
2018-03-29T09:16:45.070Z,977.31
2018-03-29T09:17:45.372Z,977.28
2018-03-29T09:19:37.559Z,977.27
2018-03-29T09:23:32.551Z,977.31
2018-03-29T09:24:32.088Z,977.25
2018-03-29T09:27:17.852Z,977.29
2018-03-29T09:28:16.837Z,977.22
2018-03-29T09:30:23.886Z,977.26
2018-03-29T09:31:40.293Z,977.27
2018-03-29T09:32:17.370Z,977.29
2018-03-29T09:33:24.406Z,977.47
2018-03-29T09:34:17.930Z,977.50
2018-03-29T09:35:20.576Z,977.38
2018-03-29T09:36:17.740Z,977.46
2018-03-29T09:37:23.052Z,977.41
2018-03-29T09:39:19.745Z,977.51
2018-03-29T09:40:19.392Z,977.38
2018-03-29T09:41:21.237Z,977.51
2018-03-29T09:42:20.387Z,977.79
2018-03-29T09:43:20.219Z,977.51
2018-03-29T09:44:20.899Z,977.51
2018-03-29T09:45:19.975Z,977.44
2018-03-29T09:46:20.039Z,977.58
2018-03-29T09:47:23.339Z,978.29
2018-03-29T09:49:22.534Z,977.49
2018-03-29T09:51:20.315Z,978.11
2018-03-29T09:52:21.596Z,977.60
2018-03-29T09:53:20.916Z,977.59
2018-03-29T09:54:20.788Z,977.71
2018-03-29T09:55:22.261Z,977.72
2018-03-29T09:56:25.670Z,977.72
2018-03-29T09:57:21.245Z,977.40
2018-03-29T09:58:21.661Z,977.34
2018-03-29T09:59:21.604Z,977.42
2018-03-29T10:00:22.382Z,977.37
2018-03-29T10:01:21.954Z,977.41
2018-03-29T10:02:22.227Z,977.34
2018-03-29T10:03:22.302Z,977.24
2018-03-29T10:04:22.601Z,977.37
2018-03-29T10:05:22.614Z,977.50
2018-03-29T10:06:22.905Z,977.35
2018-03-29T10:07:22.936Z,977.36
2018-03-29T10:08:23.453Z,977.40
2018-03-29T10:09:23.240Z,977.38
2018-03-29T10:10:23.624Z,977.36
2018-03-29T10:11:23.541Z,977.39
2018-03-29T10:13:58.469Z,977.45
2018-03-29T10:14:58.553Z,977.38
2018-03-29T10:15:58.860Z,977.31
2018-03-29T10:16:58.892Z,977.48
2018-03-29T10:17:59.178Z,977.49
2018-03-29T10:18:59.176Z,977.41
2018-03-29T10:19:59.482Z,977.41
2018-03-29T10:20:59.512Z,977.38
2018-03-29T10:21:59.768Z,977.33
2018-03-29T10:22:59.833Z,977.35
2018-03-29T10:24:00.135Z,977.40
2018-03-29T10:25:00.189Z,977.38
2018-03-29T10:26:00.474Z,977.36
2018-03-29T10:27:00.509Z,977.34
2018-03-29T10:28:00.733Z,977.40
2018-03-29T10:29:01.718Z,977.42
2018-03-29T10:30:01.097Z,977.62
2018-03-29T10:31:01.252Z,977.59
2018-03-29T10:32:01.509Z,977.55
2018-03-29T10:33:01.535Z,977.57
2018-03-29T10:34:02.401Z,977.60
2018-03-29T10:35:01.889Z,977.44
2018-03-29T10:36:02.124Z,977.42
2018-03-29T10:37:02.206Z,977.39
2018-03-29T10:38:03.533Z,977.32
2018-03-29T10:39:03.407Z,977.31
2018-03-29T10:40:02.746Z,977.43
2018-03-29T10:41:02.876Z,977.43
2018-03-29T10:42:03.140Z,977.39
2018-03-29T10:43:03.132Z,977.44
2018-03-29T10:44:03.442Z,977.36
2018-03-29T10:45:03.458Z,977.45
2018-03-29T10:46:03.712Z,977.28
2018-03-29T10:47:03.822Z,977.26
2018-03-29T10:48:03.955Z,977.30
2018-03-29T10:49:04.078Z,977.34
2018-03-29T10:50:05.230Z,977.37
2018-03-29T10:51:04.364Z,977.34
2018-03-29T10:52:05.473Z,977.34
2018-03-29T10:53:04.692Z,977.38
2018-03-29T10:54:04.896Z,977.34
2018-03-29T10:55:04.964Z,977.33
2018-03-29T10:56:05.463Z,977.40
2018-03-29T10:57:05.298Z,977.33
2018-03-29T10:58:06.816Z,977.41
2018-03-29T10:59:05.689Z,977.48
2018-03-29T11:00:06.928Z,977.41
2018-03-29T11:01:06.098Z,977.40
2018-03-29T11:02:07.250Z,977.30
2018-03-29T11:03:06.399Z,977.35
2018-03-29T11:04:06.648Z,977.34
2018-03-29T11:05:07.394Z,977.31
2018-03-29T11:06:06.968Z,977.33
2018-03-29T11:07:07.176Z,977.35
2018-03-29T11:08:07.279Z,977.30
2018-03-29T11:09:07.376Z,977.34
2018-03-29T11:10:07.622Z,977.35
2018-03-29T11:11:07.855Z,977.34
2018-03-29T11:12:08.078Z,977.29
2018-03-29T11:13:08.081Z,977.30
2018-03-29T11:14:08.424Z,977.28
2018-03-29T11:15:08.397Z,977.32
2018-03-29T11:16:08.688Z,977.28
2018-03-29T11:17:09.029Z,977.25
2018-03-29T11:18:08.987Z,977.33
2018-03-29T11:19:09.132Z,977.34
2018-03-29T11:20:11.410Z,977.30
2018-03-29T11:21:09.370Z,977.28
2018-03-29T11:22:10.742Z,977.26
2018-03-29T11:23:09.813Z,977.27
2018-03-29T11:24:11.137Z,977.25
2018-03-29T11:25:10.937Z,977.24
2018-03-29T11:26:10.413Z,977.27
2018-03-29T11:27:10.591Z,977.24
2018-03-29T11:28:10.818Z,977.23
2018-03-29T11:29:10.889Z,977.27
2018-03-29T11:30:11.189Z,977.26
2018-03-29T11:31:11.328Z,977.26
2018-03-29T11:32:11.587Z,977.26
2018-03-29T11:33:11.922Z,977.27
2018-03-29T11:34:12.199Z,977.24
2018-03-29T11:35:12.086Z,977.24
2018-03-29T11:36:13.342Z,977.26
2018-03-29T11:37:12.322Z,977.22
2018-03-29T11:38:12.518Z,977.23
2018-03-29T11:39:12.668Z,977.20
2018-03-29T11:40:12.966Z,977.22
2018-03-29T11:41:13.915Z,977.25
2018-03-29T11:42:13.361Z,977.26
2018-03-29T11:43:13.940Z,977.27
2018-03-29T11:44:14.440Z,977.27
2018-03-29T11:45:13.777Z,977.26
2018-03-29T11:46:14.046Z,977.21
2018-03-29T11:47:14.173Z,977.23
2018-03-29T11:48:14.510Z,977.17
2018-03-29T11:49:14.514Z,977.18
2018-03-29T11:50:14.902Z,977.18
2018-03-29T11:51:15.422Z,977.12
2018-03-29T11:52:15.164Z,977.14
2018-03-29T11:53:15.267Z,977.11
2018-03-29T11:54:16.350Z,977.19
2018-03-29T11:55:15.926Z,977.29
2018-03-29T11:56:16.831Z,977.29
2018-03-29T11:57:16.413Z,977.21
2018-03-29T11:58:16.031Z,977.31
2018-03-29T11:59:16.066Z,977.31
2018-03-29T12:00:17.376Z,977.35
2018-03-29T12:01:16.394Z,977.36
2018-03-29T12:02:16.669Z,977.46
2018-03-29T12:03:16.672Z,977.46
2018-03-29T12:04:17.027Z,977.62
2018-03-29T12:05:17.097Z,977.89
2018-03-29T12:06:19.454Z,978.48
2018-03-29T12:07:17.477Z,978.17
2018-03-29T12:08:17.656Z,977.67
2018-03-29T12:09:17.859Z,978.03
2018-03-29T12:10:18.115Z,978.58
2018-03-29T12:11:18.235Z,978.42
2018-03-29T12:12:18.408Z,978.47
2018-03-29T12:13:18.621Z,978.60
2018-03-29T12:14:18.912Z,978.47
2018-03-29T12:15:19.821Z,978.39
2018-03-29T12:16:19.848Z,977.76
2018-03-29T12:17:19.362Z,977.63
2018-03-29T12:18:19.707Z,977.61
2018-03-29T12:19:19.831Z,977.84
2018-03-29T12:20:20.103Z,977.84
2018-03-29T12:21:20.175Z,977.61
2018-03-29T12:22:20.436Z,977.65
2018-03-29T12:23:20.549Z,977.86
2018-03-29T12:24:21.770Z,977.54
2018-03-29T12:25:20.908Z,977.38
2018-03-29T12:26:22.430Z,977.43
2018-03-29T12:27:21.218Z,977.27
2018-03-29T12:28:21.785Z,977.29
2018-03-29T12:29:21.557Z,977.23
2018-03-29T12:30:21.809Z,977.25
2018-03-29T12:31:22.087Z,977.45
2018-03-29T12:32:22.156Z,977.60
2018-03-29T12:33:22.219Z,977.77
2018-03-29T12:34:22.501Z,977.55
2018-03-29T12:35:22.638Z,977.50
2018-03-29T12:36:23.420Z,977.58
2018-03-29T12:37:23.032Z,977.41
2018-03-29T12:38:23.251Z,977.36
2018-03-29T12:39:23.402Z,977.42
2018-03-29T12:40:23.655Z,977.54
2018-03-29T12:41:23.762Z,977.56
2018-03-29T12:42:24.050Z,977.62
2018-03-29T12:43:24.024Z,977.41
2018-03-29T12:45:38.929Z,977.12
2018-03-29T12:46:37.087Z,977.04